Time;durP1;ratioP1;P1;durP2;ratioP2;P2;SDS_P1;SDS_P2;PMS_P1;PMS_P2;Temp;Humidity;BMP_temperature;BMP_pressure;BME280_temperature;BME280_humidity;BME280_pressure;Samples;Min_cycle;Max_cycle;Signal;HPM_P1;HPM_P2
2021/06/11 00:00:40;;;;;;;7.72;6.38;;;20.80;69.60;;;;;;5073113;28;20033;-76
2021/06/11 00:03:05;;;;;;;8.32;6.57;;;20.70;69.60;;;;;;5073524;28;20103;-72
2021/06/11 00:05:31;;;;;;;7.40;6.70;;;20.80;69.90;;;;;;5080013;28;20020;-72
2021/06/11 00:07:57;;;;;;;7.15;6.22;;;20.70;69.90;;;;;;5077099;28;20040;-73
2021/06/11 00:10:23;;;;;;;7.63;6.93;;;20.70;69.80;;;;;;5053856;28;20028;-73
2021/06/11 00:12:49;;;;;;;7.07;6.38;;;20.70;69.90;;;;;;5069577;28;20526;-72
2021/06/11 00:15:14;;;;;;;9.25;7.50;;;20.60;70.10;;;;;;5070704;28;20044;-71
2021/06/11 00:17:40;;;;;;;8.85;6.95;;;20.60;70.40;;;;;;5054173;28;20123;-72
2021/06/11 00:20:08;;;;;;;7.90;7.20;;;20.60;70.40;;;;;;5069958;28;20037;-72
2021/06/11 00:22:34;;;;;;;10.27;8.00;;;20.60;70.50;;;;;;5072108;28;20028;-72
2021/06/11 00:25:00;;;;;;;8.48;7.68;;;20.50;70.60;;;;;;5069612;28;20028;-71
2021/06/11 00:27:26;;;;;;;9.10;7.57;;;20.50;70.80;;;;;;5070604;28;20039;-72
2021/06/11 00:29:52;;;;;;;8.57;7.78;;;20.40;70.80;;;;;;5070008;28;20064;-73
2021/06/11 00:32:17;;;;;;;8.05;7.30;;;20.40;70.90;;;;;;5053971;28;20021;-71
2021/06/11 00:34:43;;;;;;;8.40;7.05;;;20.40;71.00;;;;;;5071299;28;20036;-76
2021/06/11 00:37:08;;;;;;;7.72;7.03;;;20.30;70.90;;;;;;5069652;28;20115;-72
2021/06/11 00:39:34;;;;;;;9.30;7.47;;;20.30;71.10;;;;;;5071502;28;20067;-72
2021/06/11 00:42:01;;;;;;;9.13;7.32;;;20.40;71.10;;;;;;5069857;28;20166;-72
2021/06/11 00:44:28;;;;;;;8.70;7.88;;;20.30;71.10;;;;;;5070489;28;20536;-72
2021/06/11 00:46:54;;;;;;;9.07;7.95;;;20.30;71.20;;;;;;5069731;28;20025;-72
2021/06/11 00:49:20;;;;;;;8.48;7.68;;;20.30;71.10;;;;;;5071761;28;20438;-71
2021/06/11 00:51:46;;;;;;;8.80;7.80;;;20.30;71.20;;;;;;5070050;28;20043;-76
2021/06/11 00:54:13;;;;;;;8.93;8.02;;;20.30;71.10;;;;;;5070137;28;20028;-71
2021/06/11 00:56:39;;;;;;;8.93;8.02;;;20.30;71.20;;;;;;5071907;28;20063;-71
2021/06/11 00:59:05;;;;;;;9.68;8.57;;;20.20;71.30;;;;;;5070410;28;20522;-71
2021/06/11 01:01:31;;;;;;;9.85;8.95;;;20.20;71.60;;;;;;5074424;28;20036;-73
2021/06/11 01:03:56;;;;;;;9.10;8.20;;;20.10;71.70;;;;;;5073988;28;20029;-73
2021/06/11 01:06:22;;;;;;;9.52;8.55;;;20.10;71.80;;;;;;5053775;28;20095;-73
2021/06/11 01:08:50;;;;;;;8.82;8.02;;;20.00;71.80;;;;;;5071983;28;20044;-77
2021/06/11 01:11:17;;;;;;;10.20;9.10;;;20.00;72.00;;;;;;5075042;28;20033;-73
2021/06/11 01:13:44;;;;;;;10.25;8.57;;;20.00;72.00;;;;;;5073441;28;20060;-72
2021/06/11 01:16:10;;;;;;;9.40;8.35;;;20.00;72.10;;;;;;5072387;28;20622;-73
2021/06/11 01:18:36;;;;;;;10.18;8.32;;;20.00;72.10;;;;;;5056715;28;20039;-71
2021/06/11 01:21:01;;;;;;;9.02;8.00;;;20.00;72.10;;;;;;5072529;28;20028;-72
2021/06/11 01:23:57;;;;;;;12.27;8.60;;;20.00;72.10;;;;;;5074735;28;20120;-72
2021/06/11 01:26:32;;;;;;;10.32;9.23;;;19.90;72.20;;;;;;5075259;28;20075;-71
2021/06/11 01:29:13;;;;;;;11.75;9.88;;;19.80;72.50;;;;;;5072561;28;20082;-72
2021/06/11 01:31:45;;;;;;;10.10;9.07;;;19.80;72.70;;;;;;5073599;28;20017;-72
2021/06/11 01:34:52;;;;;;;10.30;9.13;;;19.80;72.80;;;;;;5073304;28;20043;-73
2021/06/11 01:37:32;;;;;;;10.77;9.68;;;19.70;73.30;;;;;;5073127;28;20039;-72
2021/06/11 01:40:02;;;;;;;12.02;10.18;;;19.80;72.90;;;;;;5074089;28;20028;-72
2021/06/11 01:42:28;;;;;;;10.85;9.77;;;19.80;72.90;;;;;;5073261;28;20124;-71
2021/06/11 01:44:56;;;;;;;12.32;10.20;;;19.80;72.80;;;;;;5072719;28;20028;-74
2021/06/11 01:47:23;;;;;;;11.85;10.38;;;19.80;72.80;;;;;;5073610;28;20052;-71
2021/06/11 01:49:51;;;;;;;10.90;9.80;;;19.90;72.90;;;;;;5074322;28;20053;-73
2021/06/11 01:52:18;;;;;;;11.27;10.07;;;19.90;72.60;;;;;;5072438;28;20024;-71
2021/06/11 01:54:46;;;;;;;12.68;10.45;;;20.00;73.00;;;;;;5074573;28;20029;-72
2021/06/11 01:57:13;;;;;;;12.23;11.02;;;20.00;72.60;;;;;;5073041;28;20033;-71
2021/06/11 01:59:40;;;;;;;13.73;11.05;;;19.90;72.80;;;;;;5073579;28;20025;-71
2021/06/11 02:02:06;;;;;;;13.13;10.95;;;19.90;72.90;;;;;;5073580;28;20044;-72
2021/06/11 02:04:33;;;;;;;13.52;12.23;;;19.80;73.10;;;;;;5073291;28;20422;-72
2021/06/11 02:07:00;;;;;;;12.75;11.18;;;19.70;73.50;;;;;;5073167;28;20439;-72
2021/06/11 02:09:27;;;;;;;15.90;11.15;;;19.60;73.70;;;;;;5056244;28;20060;-72
2021/06/11 02:11:53;;;;;;;13.75;12.27;;;19.60;74.00;;;;;;5072800;28;20025;-76
2021/06/11 02:14:21;;;;;;;12.65;11.18;;;19.50;74.20;;;;;;5073441;28;20033;-72
2021/06/11 02:16:49;;;;;;;14.75;11.05;;;19.50;74.40;;;;;;5073232;28;20516;-73
2021/06/11 02:19:15;;;;;;;13.60;11.00;;;19.40;74.60;;;;;;5072057;28;20674;-73
2021/06/11 02:21:42;;;;;;;14.75;11.85;;;19.30;74.80;;;;;;5056032;28;20025;-73
2021/06/11 02:24:08;;;;;;;13.38;11.35;;;19.30;75.00;;;;;;5072897;28;20036;-72
2021/06/11 02:26:36;;;;;;;15.35;12.95;;;19.30;75.00;;;;;;5073435;28;20033;-73
2021/06/11 02:29:02;;;;;;;15.48;13.38;;;19.20;75.20;;;;;;5071638;28;20464;-73
2021/06/11 02:31:28;;;;;;;13.77;12.48;;;19.30;75.30;;;;;;5052491;28;20029;-71
2021/06/11 02:33:53;;;;;;;14.18;12.77;;;19.20;75.30;;;;;;5069262;28;20040;-73
2021/06/11 02:36:19;;;;;;;16.27;13.55;;;19.20;75.50;;;;;;5068730;28;20033;-73
2021/06/11 02:38:44;;;;;;;15.30;12.35;;;19.10;75.60;;;;;;5069087;28;20389;-73
2021/06/11 02:41:17;;;;;;;16.63;12.98;;;19.10;75.70;;;;;;5068173;28;20473;-72
2021/06/11 02:43:43;;;;;;;14.90;13.27;;;19.10;75.80;;;;;;5068132;28;20040;-72
2021/06/11 02:46:15;;;;;;;13.32;11.95;;;19.00;75.80;;;;;;5069226;28;20028;-72
2021/06/11 02:48:48;;;;;;;14.20;12.73;;;19.00;76.00;;;;;;5073569;28;20035;-71
2021/06/11 02:51:40;;;;;;;13.60;11.68;;;19.00;76.00;;;;;;5072502;28;20476;-73
2021/06/11 02:54:20;;;;;;;12.02;10.82;;;19.00;76.00;;;;;;5072286;28;20055;-73
2021/06/11 02:56:52;;;;;;;13.68;10.75;;;19.00;76.00;;;;;;5072822;28;20039;-73
2021/06/11 02:59:23;;;;;;;11.73;10.63;;;19.00;75.90;;;;;;5072317;28;20021;-72
2021/06/11 03:01:54;;;;;;;10.60;9.50;;;18.90;75.90;;;;;;5072956;28;20025;-73
2021/06/11 03:04:23;;;;;;;10.90;9.55;;;18.90;76.00;;;;;;5071787;28;20085;-73
2021/06/11 03:06:51;;;;;;;11.00;9.90;;;18.80;76.00;;;;;;5073214;28;20103;-72
2021/06/11 03:09:21;;;;;;;10.70;9.60;;;18.90;76.00;;;;;;5072231;28;20021;-73
2021/06/11 03:11:52;;;;;;;10.07;9.05;;;18.80;75.90;;;;;;5071697;28;20024;-72
2021/06/11 03:14:18;;;;;;;10.43;9.35;;;18.80;76.30;;;;;;5070585;28;20040;-73
2021/06/11 03:16:49;;;;;;;10.13;9.05;;;18.80;75.90;;;;;;5071429;28;20033;-73
2021/06/11 03:19:18;;;;;;;10.70;8.85;;;18.80;75.90;;;;;;5070520;28;20032;-72
2021/06/11 03:21:57;;;;;;;9.32;8.35;;;18.80;75.80;;;;;;5084670;28;20448;-72
2021/06/11 03:24:30;;;;;;;9.48;8.57;;;18.80;75.90;;;;;;5090679;28;20568;-72
2021/06/11 03:27:13;;;;;;;9.05;8.20;;;18.70;76.00;;;;;;5093076;28;20028;-72
2021/06/11 03:29:48;;;;;;;10.02;9.00;;;18.70;76.00;;;;;;5093161;28;20077;-72
2021/06/11 03:32:28;;;;;;;9.70;8.75;;;18.70;76.10;;;;;;5092225;28;20028;-72
2021/06/11 03:34:59;;;;;;;9.55;8.65;;;18.70;76.20;;;;;;5072953;28;20035;-72
2021/06/11 03:37:27;;;;;;;9.45;8.55;;;18.70;76.20;;;;;;5071834;28;20460;-72
2021/06/11 03:39:59;;;;;;;9.52;8.73;;;18.70;76.10;;;;;;5072731;28;20024;-72
2021/06/11 03:42:26;;;;;;;9.07;8.25;;;18.70;76.10;;;;;;5070417;28;20021;-73
2021/06/11 03:44:54;;;;;;;9.18;8.30;;;18.70;76.10;;;;;;5072136;28;20157;-72
2021/06/11 03:47:24;;;;;;;9.10;7.90;;;18.70;76.10;;;;;;5070200;28;20537;-72
2021/06/11 03:49:53;;;;;;;8.55;7.22;;;18.70;76.00;;;;;;5072414;28;20068;-71
2021/06/11 03:52:25;;;;;;;9.48;8.27;;;18.80;75.90;;;;;;5069351;28;20492;-73
2021/06/11 03:54:54;;;;;;;9.82;8.75;;;18.80;75.90;;;;;;5071827;28;20044;-72
2021/06/11 03:57:22;;;;;;;10.35;8.80;;;18.90;75.70;;;;;;5070038;28;20025;-72
2021/06/11 03:59:49;;;;;;;10.82;8.60;;;19.00;75.20;;;;;;5070354;28;20032;-72
2021/06/11 04:02:18;;;;;;;8.80;7.90;;;19.20;74.80;;;;;;5069935;28;20024;-72
2021/06/11 04:04:43;;;;;;;9.32;8.27;;;19.40;74.30;;;;;;5072304;28;20029;-72
2021/06/11 04:07:26;;;;;;;9.75;8.65;;;19.40;74.00;;;;;;5069916;28;20368;-72
2021/06/11 04:10:01;;;;;;;8.73;7.75;;;19.60;73.60;;;;;;5070794;28;20033;-73
2021/06/11 04:12:39;;;;;;;9.30;8.25;;;19.70;73.30;;;;;;5070966;28;20012;-72
2021/06/11 04:15:06;;;;;;;10.00;8.15;;;19.90;73.40;;;;;;5071911;28;20044;-78
2021/06/11 04:17:38;;;;;;;8.93;8.05;;;20.20;72.40;;;;;;5053660;28;20024;-72
2021/06/11 04:20:04;;;;;;;8.82;7.90;;;20.50;71.50;;;;;;5070219;28;20028;-73
2021/06/11 04:22:34;;;;;;;9.80;8.00;;;21.20;70.00;;;;;;5069896;28;20029;-72
2021/06/11 04:25:01;;;;;;;10.45;8.10;;;22.10;67.80;;;;;;5071710;28;20048;-71
2021/06/11 04:27:28;;;;;;;9.27;8.38;;;23.00;65.70;;;;;;5070865;28;20129;-72
2021/06/11 04:29:55;;;;;;;9.40;8.43;;;23.70;63.90;;;;;;5070754;28;20029;-72
2021/06/11 04:32:20;;;;;;;8.90;7.65;;;24.20;62.30;;;;;;5070742;28;20032;-72
2021/06/11 04:34:47;;;;;;;9.88;8.07;;;24.80;60.90;;;;;;5071455;28;20052;-72
2021/06/11 04:37:19;;;;;;;9.48;7.80;;;25.20;59.70;;;;;;5075004;28;20468;-73
2021/06/11 04:39:45;;;;;;;7.95;7.15;;;25.60;58.40;;;;;;5075439;28;20040;-70
2021/06/11 04:42:12;;;;;;;8.55;7.68;;;26.00;57.10;;;;;;5073963;28;20031;-76
2021/06/11 04:44:37;;;;;;;10.30;7.28;;;26.40;55.80;;;;;;5076046;28;20056;-71
2021/06/11 04:47:04;;;;;;;7.20;6.60;;;26.80;54.90;;;;;;5057925;28;20060;-71
2021/06/11 04:49:29;;;;;;;9.25;7.22;;;27.20;53.70;;;;;;5074930;28;20633;-71
2021/06/11 04:51:55;;;;;;;7.18;6.47;;;27.60;52.80;;;;;;5074059;28;20138;-71
2021/06/11 04:54:21;;;;;;;7.28;6.10;;;28.00;51.70;;;;;;5073993;28;20385;-71
2021/06/11 04:56:47;;;;;;;7.13;6.38;;;28.30;50.90;;;;;;5074410;28;20064;-71
2021/06/11 04:59:13;;;;;;;7.05;6.35;;;28.50;50.20;;;;;;5073280;28;20492;-76
2021/06/11 05:01:38;;;;;;;8.70;6.90;;;28.80;49.50;;;;;;5073724;28;20493;-72
2021/06/11 05:04:04;;;;;;;6.82;6.05;;;29.00;49.00;;;;;;5075391;28;20477;-72
2021/06/11 05:06:30;;;;;;;8.20;6.00;;;29.10;48.40;;;;;;5074587;28;20208;-72
2021/06/11 05:08:55;;;;;;;6.15;5.60;;;29.10;48.20;;;;;;5073247;28;20518;-72
2021/06/11 05:11:22;;;;;;;7.57;5.82;;;29.20;48.10;;;;;;5073181;28;20028;-72
2021/06/11 05:13:48;;;;;;;7.35;5.80;;;29.40;47.60;;;;;;5071605;28;20040;-72
2021/06/11 05:16:14;;;;;;;7.68;5.82;;;29.60;47.40;;;;;;5070373;28;20035;-76
2021/06/11 05:18:39;;;;;;;6.15;5.60;;;29.90;47.00;;;;;;5070611;28;20086;-70
2021/06/11 05:21:05;;;;;;;5.63;5.13;;;30.20;46.30;;;;;;5052231;28;20457;-73
2021/06/11 05:23:31;;;;;;;6.32;5.43;;;30.40;45.70;;;;;;5068746;28;20059;-71
2021/06/11 05:25:57;;;;;;;7.95;6.00;;;30.60;45.40;;;;;;5075130;28;20056;-72
2021/06/11 05:28:23;;;;;;;5.95;5.35;;;31.00;45.00;;;;;;5073899;28;20020;-71
2021/06/11 05:30:49;;;;;;;7.93;5.63;;;31.20;44.50;;;;;;5073773;28;20464;-71
2021/06/11 05:33:15;;;;;;;7.30;5.97;;;31.30;44.40;;;;;;5056597;28;20063;-76
2021/06/11 05:35:41;;;;;;;5.72;5.20;;;31.40;44.10;;;;;;5073057;28;20067;-71
2021/06/11 05:38:07;;;;;;;5.93;4.97;;;31.70;43.60;;;;;;5056856;28;20036;-71
2021/06/11 05:40:33;;;;;;;8.02;4.47;;;31.90;43.20;;;;;;5055962;28;20060;-72
2021/06/11 05:42:58;;;;;;;6.45;5.03;;;31.90;42.90;;;;;;5076408;28;20059;-71
2021/06/11 05:45:25;;;;;;;8.05;5.28;;;31.80;43.10;;;;;;5080303;28;20681;-73
2021/06/11 05:47:51;;;;;;;6.40;4.90;;;31.90;42.70;;;;;;5056393;28;20039;-72
2021/06/11 05:50:16;;;;;;;6.55;4.80;;;32.00;42.70;;;;;;5072577;28;20056;-76
2021/06/11 05:52:42;;;;;;;5.18;4.65;;;32.20;42.70;;;;;;5073158;28;20044;-72
2021/06/11 05:55:08;;;;;;;6.07;4.70;;;32.50;42.00;;;;;;5072908;28;20055;-71
2021/06/11 05:57:34;;;;;;;5.03;4.55;;;32.80;41.70;;;;;;5072314;28;20029;-72
2021/06/11 06:00:00;;;;;;;5.13;4.63;;;32.90;41.60;;;;;;5074053;28;20020;-72
2021/06/11 06:02:25;;;;;;;4.93;4.40;;;33.00;41.30;;;;;;5072213;28;20115;-72
2021/06/11 06:04:51;;;;;;;4.50;4.10;;;33.30;40.70;;;;;;5073079;28;20526;-71
2021/06/11 06:07:17;;;;;;;6.13;4.30;;;33.30;40.50;;;;;;5074626;28;20020;-76
2021/06/11 06:09:43;;;;;;;5.95;3.92;;;33.30;41.00;;;;;;5081914;28;20100;-72
2021/06/11 06:12:10;;;;;;;5.07;3.47;;;33.30;40.90;;;;;;5076804;28;20040;-71
2021/06/11 06:14:36;;;;;;;4.50;3.45;;;33.20;40.50;;;;;;5071511;28;20458;-72
2021/06/11 06:17:03;;;;;;;4.05;3.33;;;33.40;40.40;;;;;;5074468;28;20028;-72
2021/06/11 06:19:28;;;;;;;4.70;3.00;;;33.60;40.20;;;;;;5080977;28;20025;-72
2021/06/11 06:21:54;;;;;;;4.65;3.25;;;34.00;39.80;;;;;;5052528;28;20025;-72
2021/06/11 06:24:20;;;;;;;5.47;2.90;;;34.00;39.60;;;;;;5055510;28;20029;-76
2021/06/11 06:26:45;;;;;;;4.10;3.30;;;34.20;39.30;;;;;;5055275;28;20039;-72
2021/06/11 06:29:11;;;;;;;6.85;3.35;;;34.30;39.30;;;;;;5072721;28;20029;-71
2021/06/11 06:31:37;;;;;;;5.55;3.63;;;34.30;39.40;;;;;;5071954;28;20468;-71
2021/06/11 06:34:03;;;;;;;4.97;3.65;;;34.40;39.60;;;;;;5052438;28;20191;-71
2021/06/11 06:36:30;;;;;;;5.72;3.38;;;34.50;39.30;;;;;;5075725;28;20029;-71
2021/06/11 06:38:58;;;;;;;3.55;3.25;;;34.40;39.10;;;;;;5072026;28;20400;-71
2021/06/11 06:41:24;;;;;;;4.75;3.28;;;34.30;39.70;;;;;;5072949;28;20025;-75
2021/06/11 06:43:50;;;;;;;4.05;2.60;;;34.20;39.50;;;;;;5074250;28;20066;-72
2021/06/11 06:46:21;;;;;;;3.67;3.10;;;34.30;39.20;;;;;;5071699;28;20075;-72
2021/06/11 06:48:48;;;;;;;3.50;2.90;;;34.00;39.30;;;;;;5072723;28;20020;-73
2021/06/11 06:51:14;;;;;;;3.95;2.90;;;34.00;39.20;;;;;;5073442;28;20048;-71
2021/06/11 06:53:40;;;;;;;3.55;2.50;;;34.20;39.20;;;;;;5072292;28;20024;-72
2021/06/11 06:56:05;;;;;;;2.95;2.35;;;34.30;38.80;;;;;;5071946;28;20110;-72
2021/06/11 06:58:31;;;;;;;4.82;2.58;;;34.40;38.80;;;;;;5071433;28;20025;-71
2021/06/11 07:00:57;;;;;;;2.75;2.50;;;34.50;38.70;;;;;;5055452;28;20039;-71
2021/06/11 07:03:23;;;;;;;2.97;2.60;;;34.50;39.00;;;;;;5071655;28;20028;-77
2021/06/11 07:05:49;;;;;;;2.83;2.35;;;34.60;38.70;;;;;;5072803;28;20056;-71
2021/06/11 07:08:15;;;;;;;3.22;1.90;;;34.50;38.80;;;;;;5073258;28;20485;-71
2021/06/11 07:10:41;;;;;;;2.58;2.20;;;34.60;38.40;;;;;;5072407;28;20025;-72
2021/06/11 07:13:12;;;;;;;2.38;2.17;;;34.70;38.30;;;;;;5072818;28;20052;-72
2021/06/11 07:15:38;;;;;;;2.60;2.13;;;34.70;38.40;;;;;;5070224;28;20116;-72
2021/06/11 07:18:04;;;;;;;2.95;1.88;;;34.70;38.30;;;;;;5072648;28;20103;-71
2021/06/11 07:20:30;;;;;;;3.50;1.85;;;34.90;38.50;;;;;;5071791;28;20028;-72
2021/06/11 07:22:56;;;;;;;3.10;2.10;;;35.10;38.20;;;;;;5072852;28;20028;-71
2021/06/11 07:25:22;;;;;;;4.28;2.10;;;35.30;37.90;;;;;;5071345;28;20081;-73
2021/06/11 07:27:48;;;;;;;6.22;2.88;;;35.30;37.80;;;;;;5070556;28;20017;-71
2021/06/11 07:30:14;;;;;;;6.60;2.45;;;35.10;37.80;;;;;;5071049;28;20020;-72
2021/06/11 07:32:42;;;;;;;3.83;2.45;;;35.20;38.20;;;;;;5071805;28;20027;-72
2021/06/11 07:35:12;;;;;;;3.80;2.63;;;35.30;37.90;;;;;;5072427;28;20027;-71
2021/06/11 07:37:38;;;;;;;6.68;3.03;;;34.90;37.90;;;;;;5070450;28;20024;-71
2021/06/11 07:40:09;;;;;;;5.55;3.45;;;34.40;38.90;;;;;;5071548;28;20384;-72
2021/06/11 07:42:35;;;;;;;10.40;3.78;;;34.00;39.50;;;;;;5071476;28;20021;-73
2021/06/11 07:45:01;;;;;;;6.43;3.22;;;33.70;40.00;;;;;;5071739;28;20108;-72
2021/06/11 07:47:27;;;;;;;5.78;4.03;;;33.30;40.30;;;;;;5054585;28;20044;-72
2021/06/11 07:49:52;;;;;;;6.25;3.85;;;33.00;41.20;;;;;;5070047;28;20059;-72
2021/06/11 07:52:18;;;;;;;5.57;3.20;;;33.10;41.10;;;;;;5072578;28;20384;-72
2021/06/11 07:54:44;;;;;;;6.47;4.47;;;33.10;40.90;;;;;;5071446;28;20036;-73
2021/06/11 07:57:10;;;;;;;9.52;4.82;;;33.40;41.00;;;;;;5054401;28;20028;-71
2021/06/11 07:59:36;;;;;;;6.47;4.43;;;33.90;40.30;;;;;;5071449;28;20033;-71
2021/06/11 08:02:01;;;;;;;8.15;4.35;;;34.10;40.00;;;;;;5071869;28;20082;-70
2021/06/11 08:04:27;;;;;;;7.43;3.90;;;34.30;39.70;;;;;;5054204;28;20033;-71
2021/06/11 08:06:53;;;;;;;7.25;3.65;;;34.60;39.60;;;;;;5070103;28;20514;-71
2021/06/11 08:09:18;;;;;;;9.02;3.97;;;34.80;39.30;;;;;;5072337;28;20461;-71
2021/06/11 08:11:44;;;;;;;4.78;3.50;;;34.90;38.90;;;;;;5071170;28;20369;-71
2021/06/11 08:14:10;;;;;;;5.78;3.20;;;34.80;38.80;;;;;;5070453;28;20033;-72
2021/06/11 08:16:36;;;;;;;4.70;3.55;;;34.60;39.10;;;;;;5070865;28;20047;-73
2021/06/11 08:19:02;;;;;;;5.53;3.20;;;34.80;40.10;;;;;;5071802;28;20059;-71
2021/06/11 08:21:28;;;;;;;4.90;2.65;;;35.00;38.70;;;;;;5071682;28;20099;-72
2021/06/11 08:23:53;;;;;;;5.63;3.05;;;35.20;38.20;;;;;;5053138;28;20067;-71
2021/06/11 08:26:19;;;;;;;4.85;3.00;;;35.00;38.20;;;;;;5070749;28;20024;-72
2021/06/11 08:28:45;;;;;;;5.80;2.65;;;34.50;38.90;;;;;;5070914;28;20040;-73
2021/06/11 08:31:11;;;;;;;4.28;3.30;;;34.00;39.80;;;;;;5071846;28;20559;-71
2021/06/11 08:33:36;;;;;;;4.10;2.80;;;33.90;40.40;;;;;;5069570;28;20115;-74
2021/06/11 08:36:02;;;;;;;7.20;3.20;;;33.90;40.30;;;;;;5070606;28;20104;-70
2021/06/11 08:38:28;;;;;;;3.95;2.30;;;34.10;40.20;;;;;;5070301;28;20031;-71
2021/06/11 08:40:54;;;;;;;4.10;2.33;;;33.90;40.00;;;;;;5070433;28;20029;-71
2021/06/11 08:43:21;;;;;;;3.90;2.63;;;33.90;40.00;;;;;;5070498;28;20089;-72
2021/06/11 08:45:49;;;;;;;3.47;2.40;;;34.20;39.60;;;;;;5069454;28;20070;-72
2021/06/11 08:48:15;;;;;;;4.43;2.95;;;34.40;39.50;;;;;;5071668;28;20029;-71
2021/06/11 08:50:41;;;;;;;3.58;2.33;;;34.30;39.50;;;;;;5069322;28;20053;-72
2021/06/11 08:53:07;;;;;;;4.15;2.90;;;34.40;39.90;;;;;;5070310;28;20032;-71
2021/06/11 08:55:35;;;;;;;4.47;2.28;;;34.50;39.70;;;;;;5071470;28;20029;-71
2021/06/11 08:58:02;;;;;;;4.82;2.58;;;34.70;39.30;;;;;;5071128;28;20040;-72
2021/06/11 09:00:28;;;;;;;3.85;2.13;;;35.10;39.00;;;;;;5070335;28;20385;-71
2021/06/11 09:03:15;;;;;;;4.90;2.90;;;35.30;38.80;;;;;;5070901;28;20252;-71
2021/06/11 09:05:43;;;;;;;4.07;2.53;;;35.50;38.40;;;;;;5070777;28;20024;-72
2021/06/11 09:08:21;;;;;;;4.07;2.97;;;35.70;38.10;;;;;;5071511;28;20040;-71
2021/06/11 09:10:52;;;;;;;3.78;2.95;;;35.90;37.80;;;;;;5069015;28;20111;-73
2021/06/11 09:13:27;;;;;;;4.25;2.97;;;36.00;37.50;;;;;;5082483;28;20028;-73
2021/06/11 09:16:16;;;;;;;5.13;2.53;;;36.00;37.60;;;;;;5089608;28;20047;-72
2021/06/11 09:18:44;;;;;;;4.18;3.78;;;36.10;37.90;;;;;;5080359;28;20028;-76
2021/06/11 09:21:32;;;;;;;5.00;4.22;;;36.00;37.60;;;;;;5073605;28;20020;-72
2021/06/11 09:24:18;;;;;;;3.72;2.42;;;36.00;37.70;;;;;;5074408;28;20493;-72
2021/06/11 09:27:11;;;;;;;3.92;3.60;;;35.90;37.90;;;;;;5074463;28;20017;-73
2021/06/11 09:29:45;;;;;;;4.85;3.50;;;36.10;37.10;;;;;;5074926;28;20575;-73
2021/06/11 09:32:13;;;;;;;4.75;3.05;;;36.20;37.40;;;;;;5075118;28;20060;-73
2021/06/11 09:34:40;;;;;;;3.80;3.20;;;36.20;37.40;;;;;;5080270;28;20028;-76
2021/06/11 09:37:14;;;;;;;6.00;2.78;;;36.40;37.30;;;;;;5093636;28;20157;-74
2021/06/11 09:39:52;;;;;;;5.20;3.67;;;36.50;37.00;;;;;;5077368;28;20389;-76
2021/06/11 09:42:37;;;;;;;4.43;3.13;;;36.70;36.50;;;;;;5074788;28;20052;-74
2021/06/11 09:45:06;;;;;;;4.90;2.95;;;37.00;36.70;;;;;;5072463;28;20028;-72
2021/06/11 09:47:46;;;;;;;4.03;2.63;;;37.00;36.40;;;;;;5074717;28;20028;-73
2021/06/11 09:50:25;;;;;;;3.75;3.33;;;37.20;36.30;;;;;;5072884;28;20049;-73
2021/06/11 09:52:56;;;;;;;4.50;3.33;;;37.40;35.90;;;;;;5065876;28;20027;-73
2021/06/11 09:55:41;;;;;;;4.20;2.40;;;37.20;35.60;;;;;;5076444;28;20141;-73
2021/06/11 09:58:17;;;;;;;2.50;1.17;;;37.10;36.20;;;;;;5072985;28;20028;-72
2021/06/11 10:00:51;;;;;;;3.47;1.30;;;37.20;35.60;;;;;;5096654;28;20016;-76
2021/06/11 10:03:27;;;;;;;2.55;1.50;;;37.30;34.90;;;;;;5076137;28;20029;-72
2021/06/11 10:05:55;;;;;;;2.13;1.45;;;37.50;34.70;;;;;;5080040;28;20480;-71
2021/06/11 10:08:23;;;;;;;2.90;1.33;;;37.60;34.30;;;;;;5073767;28;20024;-72
2021/06/11 10:10:51;;;;;;;2.78;1.50;;;37.40;34.90;;;;;;5074722;28;20361;-72
2021/06/11 10:13:18;;;;;;;2.17;1.15;;;37.00;35.00;;;;;;5071824;28;20111;-72
2021/06/11 10:15:46;;;;;;;2.15;0.98;;;36.40;35.40;;;;;;5072969;28;20551;-76
2021/06/11 10:18:13;;;;;;;2.38;0.88;;;36.30;35.70;;;;;;5072651;28;20372;-72
2021/06/11 10:20:40;;;;;;;2.95;1.00;;;36.50;35.50;;;;;;5085187;28;20051;-72
2021/06/11 10:23:08;;;;;;;2.38;0.85;;;36.60;35.40;;;;;;5074758;28;20024;-72
2021/06/11 10:25:35;;;;;;;1.83;0.70;;;36.80;35.50;;;;;;5094008;28;20027;-73
2021/06/11 10:28:02;;;;;;;2.20;0.90;;;37.00;35.10;;;;;;5068971;28;20033;-72
2021/06/11 10:30:29;;;;;;;1.65;0.70;;;36.90;35.10;;;;;;5073960;28;20052;-73
2021/06/11 10:32:55;;;;;;;1.88;0.60;;;36.90;35.10;;;;;;5071675;28;20020;-73
2021/06/11 10:35:56;;;;;;;1.23;0.80;;;36.90;34.50;;;;;;5086505;28;20474;-72
2021/06/11 10:38:33;;;;;;;1.40;0.80;;;36.80;34.50;;;;;;5076489;28;20043;-73
2021/06/11 10:41:01;;;;;;;1.50;0.90;;;36.60;34.90;;;;;;5071860;28;20029;-72
2021/06/11 10:43:37;;;;;;;1.35;0.80;;;36.60;35.10;;;;;;5074012;28;20461;-73
2021/06/11 10:46:24;;;;;;;2.75;0.60;;;36.70;34.90;;;;;;5072028;28;20070;-72
2021/06/11 10:48:55;;;;;;;1.40;0.80;;;36.80;34.80;;;;;;5072238;28;20480;-78
2021/06/11 10:51:50;;;;;;;2.20;0.60;;;37.10;34.10;;;;;;5077820;28;20044;-72
2021/06/11 10:54:19;;;;;;;1.25;0.55;;;37.20;34.70;;;;;;5071563;28;20074;-73
2021/06/11 10:57:00;;;;;;;1.20;0.50;;;37.40;33.80;;;;;;5068714;28;20079;-72
2021/06/11 10:59:41;;;;;;;1.15;0.55;;;37.20;33.50;;;;;;5068574;28;20047;-73
2021/06/11 11:02:08;;;;;;;2.03;0.60;;;37.20;33.90;;;;;;5069073;28;20039;-73
2021/06/11 11:04:35;;;;;;;1.42;0.60;;;36.80;33.80;;;;;;5069914;28;20086;-73
2021/06/11 11:07:23;;;;;;;0.98;0.40;;;36.70;34.10;;;;;;5069686;28;20461;-74
2021/06/11 11:10:31;;;;;;;2.15;0.55;;;36.50;33.60;;;;;;5071992;28;20048;-74
2021/06/11 11:13:08;;;;;;;1.17;0.52;;;36.20;33.80;;;;;;5070430;28;20865;-76
2021/06/11 11:15:37;;;;;;;0.95;0.30;;;36.20;33.90;;;;;;5072038;28;20506;-72
2021/06/11 11:18:12;;;;;;;1.40;0.30;;;36.20;34.10;;;;;;5071268;28;20024;-73
2021/06/11 11:20:40;;;;;;;1.92;0.50;;;36.40;34.20;;;;;;5069730;28;20028;-72
2021/06/11 11:23:09;;;;;;;3.63;0.60;;;36.60;33.90;;;;;;5070992;28;20021;-72
2021/06/11 11:25:35;;;;;;;2.03;0.70;;;36.60;34.30;;;;;;5069362;28;20035;-73
2021/06/11 11:28:03;;;;;;;2.17;0.43;;;36.70;34.70;;;;;;5068926;28;20025;-72
2021/06/11 11:30:29;;;;;;;0.85;0.40;;;36.80;33.70;;;;;;5069470;28;20044;-72
2021/06/11 11:32:56;;;;;;;0.85;0.40;;;36.80;33.40;;;;;;5071367;28;20027;-76
2021/06/11 11:35:25;;;;;;;1.42;0.50;;;36.70;33.50;;;;;;5069793;28;20045;-72
2021/06/11 11:37:53;;;;;;;2.05;0.50;;;36.70;33.50;;;;;;5062655;28;20021;-77
2021/06/11 11:40:19;;;;;;;1.10;0.40;;;36.60;33.60;;;;;;5069227;28;20063;-73
2021/06/11 11:42:45;;;;;;;2.15;0.40;;;36.60;34.10;;;;;;5069083;28;20028;-73
2021/06/11 11:45:12;;;;;;;0.52;0.30;;;36.60;33.80;;;;;;5069973;28;20074;-74
2021/06/11 11:47:38;;;;;;;1.15;0.40;;;36.60;34.10;;;;;;5069381;28;20028;-73
2021/06/11 11:50:05;;;;;;;1.88;0.45;;;36.60;34.00;;;;;;5068477;28;20143;-72
2021/06/11 11:52:32;;;;;;;1.40;0.60;;;36.80;34.50;;;;;;5071402;28;20435;-75
2021/06/11 11:54:59;;;;;;;1.60;0.50;;;36.60;34.40;;;;;;5067887;28;20044;-75
2021/06/11 11:57:25;;;;;;;1.30;0.40;;;36.30;34.00;;;;;;5069384;28;20032;-73
2021/06/11 11:59:50;;;;;;;0.98;0.30;;;36.20;34.20;;;;;;5069347;28;20033;-74
2021/06/11 12:02:16;;;;;;;0.88;0.30;;;36.20;34.10;;;;;;5077198;28;20048;-73
2021/06/11 12:04:42;;;;;;;2.50;0.30;;;36.30;33.90;;;;;;5069287;28;20381;-76
2021/06/11 12:07:07;;;;;;;2.72;0.40;;;36.30;33.80;;;;;;5067550;28;20050;-73
2021/06/11 12:09:33;;;;;;;1.05;0.30;;;36.20;33.70;;;;;;5069064;28;20056;-73
2021/06/11 12:11:59;;;;;;;0.65;0.30;;;36.00;33.70;;;;;;5067563;28;20090;-76
2021/06/11 12:14:25;;;;;;;1.23;0.30;;;36.00;33.70;;;;;;5067845;28;20432;-72
2021/06/11 12:16:51;;;;;;;0.77;0.30;;;36.20;33.70;;;;;;5066790;28;20420;-72
2021/06/11 12:19:17;;;;;;;1.77;0.40;;;36.10;33.70;;;;;;5067894;28;20103;-73
2021/06/11 12:21:42;;;;;;;1.98;0.50;;;36.10;33.70;;;;;;5068282;28;20380;-74
2021/06/11 12:24:08;;;;;;;1.52;0.40;;;36.00;33.90;;;;;;5069125;28;20059;-74
2021/06/11 12:26:34;;;;;;;1.77;0.35;;;35.90;34.30;;;;;;5069141;28;20032;-75
2021/06/11 12:29:01;;;;;;;0.75;0.40;;;35.80;34.10;;;;;;5069984;28;20439;-73
2021/06/11 12:31:28;;;;;;;2.85;0.52;;;35.60;34.50;;;;;;5069931;28;20037;-73
2021/06/11 12:33:54;;;;;;;1.27;0.40;;;35.60;34.30;;;;;;5070091;28;20032;-73
2021/06/11 12:36:20;;;;;;;0.80;0.30;;;35.40;34.70;;;;;;5052616;28;20033;-72
2021/06/11 12:38:46;;;;;;;0.98;0.50;;;35.30;34.80;;;;;;5072441;28;20496;-72
2021/06/11 12:41:15;;;;;;;0.68;0.40;;;35.30;34.50;;;;;;5071145;28;20032;-71
2021/06/11 12:46:25;;;;;;;0.70;0.40;;;35.40;34.70;;;;;;5051998;28;20052;-72
2021/06/11 12:48:52;;;;;;;1.48;0.40;;;35.50;34.80;;;;;;5050529;28;20461;-72
2021/06/11 12:51:18;;;;;;;2.00;0.50;;;35.70;34.30;;;;;;5049354;28;20053;-71
2021/06/11 12:53:44;;;;;;;0.90;0.50;;;35.80;34.20;;;;;;5051566;28;20045;-72